Time;durP1;ratioP1;P1;durP2;ratioP2;P2;SDS_P1;SDS_P2;PMS_P1;PMS_P2;Temp;Humidity;BMP_temperature;BMP_pressure;BME280_temperature;BME280_humidity;BME280_pressure;Samples;Min_cycle;Max_cycle;Signal;HPM_P1;HPM_P2
2023/11/20 00:00:23;;;;;;;;;;;3.80;76.20;;;;;;5053135;28;81900;-44
2023/11/20 00:02:49;;;;;;;;;;;3.80;76.10;;;;;;5052687;28;82867;-44
2023/11/20 00:05:15;;;;;;;;;;;3.80;76.10;;;;;;5052066;28;83451;-43
2023/11/20 00:07:41;;;;;;;;;;;3.80;76.10;;;;;;5052597;28;81863;-44
2023/11/20 00:10:07;;;;;;;;;;;3.80;76.10;;;;;;5052465;28;81952;-43
2023/11/20 00:12:32;;;;;;;;;;;3.80;76.10;;;;;;5050953;28;83914;-43
2023/11/20 00:14:58;;;;;;;;;;;3.80;76.10;;;;;;5051587;28;82846;-44
2023/11/20 00:17:24;;;;;;;;;;;3.80;76.10;;;;;;5051442;28;82920;-43
2023/11/20 00:19:50;;;;;;;;;;;3.80;76.10;;;;;;5051979;28;82157;-43
2023/11/20 00:22:16;;;;;;;;;;;3.80;76.20;;;;;;5052097;28;83197;-44
2023/11/20 00:24:42;;;;;;;;;;;3.80;76.10;;;;;;5051990;28;82460;-43
2023/11/20 00:27:07;;;;;;;;;;;3.80;76.00;;;;;;5050499;28;81964;-44
2023/11/20 00:29:33;;;;;;;;;;;3.80;76.20;;;;;;5052127;28;82816;-44
2023/11/20 00:31:58;;;;;;;;;;;3.80;76.20;;;;;;5051204;27;82854;-43
2023/11/20 00:34:24;;;;;;;;;;;3.80;76.20;;;;;;5052394;28;81995;-44
2023/11/20 00:36:49;;;;;;;;;;;3.80;76.10;;;;;;5051961;27;82637;-44
2023/11/20 00:39:15;;;;;;;;;;;3.90;76.10;;;;;;5053813;28;82483;-43
2023/11/20 00:41:41;;;;;;;;;;;3.90;76.10;;;;;;5051211;28;82176;-44
2023/11/20 00:44:07;;;;;;;;;;;3.90;76.10;;;;;;5052072;28;82159;-44
2023/11/20 00:46:32;;;;;;;;;;;3.90;76.10;;;;;;5052958;28;81210;-44
2023/11/20 00:48:58;;;;;;;;;;;3.90;75.90;;;;;;5051631;28;82214;-43
2023/11/20 00:51:25;;;;;;;;;;;3.80;76.70;;;;;;5051206;28;82915;-43
2023/11/20 00:53:51;;;;;;;;;;;3.80;76.10;;;;;;5051251;28;82962;-44
2023/11/20 00:56:17;;;;;;;;;;;3.80;76.10;;;;;;5035680;27;83621;-43
2023/11/20 00:58:43;;;;;;;;;;;3.90;76.20;;;;;;5008994;28;82676;-44
2023/11/20 01:01:09;;;;;;;;;;;3.90;75.90;;;;;;5006180;28;81995;-42
2023/11/20 01:03:34;;;;;;;;;;;3.90;76.10;;;;;;5005995;28;83420;-44
2023/11/20 01:06:04;;;;;;;;;;;3.90;75.90;;;;;;5001967;28;81991;-43
2023/11/20 01:08:29;;;;;;;;;;;3.90;76.10;;;;;;4998929;28;82940;-43
2023/11/20 01:10:55;;;;;;;;;;;3.90;76.20;;;;;;5003313;28;81672;-43
2023/11/20 01:13:20;;;;;;;;;;;3.90;76.30;;;;;;5007205;28;81893;-44
2023/11/20 01:15:46;;;;;;;;;;;3.90;76.20;;;;;;5003627;28;81707;-43
2023/11/20 01:18:11;;;;;;;;;;;3.90;76.00;;;;;;5004071;28;82675;-44
2023/11/20 01:20:37;;;;;;;;;;;3.90;76.00;;;;;;4999288;28;81995;-43
2023/11/20 01:23:03;;;;;;;;;;;3.90;76.20;;;;;;5005905;28;81759;-44
2023/11/20 01:25:31;;;;;;;;;;;3.90;76.00;;;;;;5001749;28;82035;-44
2023/11/20 01:27:59;;;;;;;;;;;3.90;76.00;;;;;;5002306;28;81989;-43
2023/11/20 01:30:26;;;;;;;;;;;3.90;75.90;;;;;;5002614;28;82511;-44
2023/11/20 01:32:51;;;;;;;;;;;3.90;76.60;;;;;;5002611;28;82019;-43
2023/11/20 01:35:17;;;;;;;;;;;3.80;76.00;;;;;;5003310;28;82000;-44
2023/11/20 01:37:43;;;;;;;;;;;3.80;76.10;;;;;;5002967;28;82350;-43
2023/11/20 01:40:12;;;;;;;;;;;3.90;76.20;;;;;;4999682;28;81889;-43
2023/11/20 01:42:37;;;;;;;;;;;3.90;76.20;;;;;;5007629;28;82496;-44
2023/11/20 01:45:03;;;;;;;;;;;3.80;76.10;;;;;;5003531;28;82134;-43
2023/11/20 01:47:29;;;;;;;;;;;3.80;76.10;;;;;;5001743;28;81892;-43
2023/11/20 01:49:55;;;;;;;;;;;3.80;76.20;;;;;;5004121;28;82501;-44
2023/11/20 01:52:21;;;;;;;;;;;3.80;76.10;;;;;;5003894;28;81891;-43
2023/11/20 01:54:46;;;;;;;;;;;3.80;76.20;;;;;;5003774;28;83261;-43
2023/11/20 01:57:12;;;;;;;;;;;3.80;76.20;;;;;;5005609;28;82500;-44
2023/11/20 01:59:38;;;;;;;;;;;3.80;76.20;;;;;;5001499;28;81125;-43
2023/11/20 02:02:05;;;;;;;;;;;3.80;76.20;;;;;;5001620;28;81911;-43
2023/11/20 02:04:32;;;;;;;;;;;3.80;76.40;;;;;;5002374;28;82472;-43
2023/11/20 02:06:58;;;;;;;;;;;3.80;76.20;;;;;;4999240;28;82782;-44
2023/11/20 02:09:24;;;;;;;;;;;3.80;76.10;;;;;;5005293;28;82375;-44
2023/11/20 02:11:50;;;;;;;;;;;3.80;76.20;;;;;;5001820;28;82236;-44
2023/11/20 02:14:15;;;;;;;;;;;3.80;76.20;;;;;;5007752;28;82960;-43
2023/11/20 02:16:41;;;;;;;;;;;3.80;76.30;;;;;;4998675;28;82501;-43
2023/11/20 02:19:13;;;;;;;;;;;3.80;76.20;;;;;;5002728;28;82078;-44
2023/11/20 02:21:39;;;;;;;;;;;3.80;76.20;;;;;;5002703;28;81897;-44
2023/11/20 02:24:05;;;;;;;;;;;3.80;76.20;;;;;;4994988;28;81502;-44
2023/11/20 02:26:34;;;;;;;;;;;3.80;76.20;;;;;;5007792;28;82072;-43
2023/11/20 02:29:03;;;;;;;;;;;3.80;76.10;;;;;;5000377;28;82233;-43
2023/11/20 02:31:30;;;;;;;;;;;3.80;76.20;;;;;;4999921;28;82939;-43
2023/11/20 02:33:57;;;;;;;;;;;3.80;76.20;;;;;;4998560;28;82820;-45
2023/11/20 02:36:26;;;;;;;;;;;3.80;76.90;;;;;;5001837;28;83414;-44
2023/11/20 02:38:51;;;;;;;;;;;3.80;76.20;;;;;;4998441;28;81981;-43
2023/11/20 02:41:17;;;;;;;;;;;3.80;76.20;;;;;;5001982;28;82368;-44
2023/11/20 02:43:43;;;;;;;;;;;3.80;76.10;;;;;;5001319;28;82193;-43
2023/11/20 02:46:09;;;;;;;;;;;3.80;76.40;;;;;;4994272;28;81976;-43
2023/11/20 02:48:34;;;;;;;;;;;3.80;76.80;;;;;;5004050;28;81707;-44
2023/11/20 02:51:01;;;;;;;;;;;3.80;76.20;;;;;;4999888;28;81919;-44
2023/11/20 02:53:27;;;;;;;;;;;3.80;76.30;;;;;;4999930;28;82969;-44
2023/11/20 02:55:53;;;;;;;;;;;3.70;76.20;;;;;;5000601;28;83483;-43
2023/11/20 02:58:18;;;;;;;;;;;3.70;76.20;;;;;;5000008;28;81998;-44
2023/11/20 03:00:44;;;;;;;;;;;3.80;76.20;;;;;;4999419;28;81947;-43
2023/11/20 03:03:12;;;;;;;;;;;3.80;76.20;;;;;;5001507;28;82539;-44
2023/11/20 03:05:38;;;;;;;;;;;3.80;76.30;;;;;;4997615;28;82096;-43
2023/11/20 03:08:04;;;;;;;;;;;3.80;76.20;;;;;;4998357;28;81975;-44
2023/11/20 03:10:29;;;;;;;;;;;3.80;76.20;;;;;;5003573;28;82247;-44
2023/11/20 03:12:55;;;;;;;;;;;3.80;76.30;;;;;;5001676;28;81750;-44
2023/11/20 03:15:21;;;;;;;;;;;3.70;76.30;;;;;;5000542;28;82424;-43
2023/11/20 03:17:47;;;;;;;;;;;3.70;76.40;;;;;;5004519;28;82083;-44
2023/11/20 03:20:12;;;;;;;;;;;3.70;76.30;;;;;;4997468;28;82819;-44
2023/11/20 03:22:38;;;;;;;;;;;3.70;76.20;;;;;;5001393;28;82460;-44
2023/11/20 03:25:03;;;;;;;;;;;3.70;76.20;;;;;;5001354;28;82144;-43
2023/11/20 03:27:29;;;;;;;;;;;3.70;76.20;;;;;;4999590;28;81983;-45
2023/11/20 03:29:55;;;;;;;;;;;3.70;76.20;;;;;;5002126;28;81842;-43
2023/11/20 03:32:21;;;;;;;;;;;3.70;76.20;;;;;;5004537;28;81946;-44
2023/11/20 03:34:47;;;;;;;;;;;3.70;76.20;;;;;;4999271;28;82517;-45
2023/11/20 03:37:12;;;;;;;;;;;3.70;76.20;;;;;;5000396;28;81255;-44
2023/11/20 03:39:38;;;;;;;;;;;3.70;76.20;;;;;;4998309;28;82211;-44
2023/11/20 03:42:03;;;;;;;;;;;3.70;76.20;;;;;;5000730;28;82413;-46
2023/11/20 03:44:29;;;;;;;;;;;3.70;76.10;;;;;;4994195;28;82885;-44
2023/11/20 03:46:54;;;;;;;;;;;3.70;76.20;;;;;;5004369;28;82534;-44
2023/11/20 03:49:20;;;;;;;;;;;3.70;76.10;;;;;;4997572;28;82322;-45
2023/11/20 03:51:45;;;;;;;;;;;3.70;76.10;;;;;;5003859;28;82013;-44
2023/11/20 03:54:11;;;;;;;;;;;3.70;76.20;;;;;;4999473;28;82303;-45
2023/11/20 03:56:37;;;;;;;;;;;3.70;76.20;;;;;;4996637;28;81966;-47
2023/11/20 03:59:02;;;;;;;;;;;3.70;76.20;;;;;;5003846;28;82044;-47
2023/11/20 04:01:28;;;;;;;;;;;3.70;76.10;;;;;;4999017;28;81628;-44
2023/11/20 04:03:53;;;;;;;;;;;3.70;76.20;;;;;;5001612;28;81981;-44
2023/11/20 04:06:19;;;;;;;;;;;3.70;76.20;;;;;;5004636;28;81770;-42
2023/11/20 04:08:44;;;;;;;;;;;3.70;76.20;;;;;;4999963;28;83193;-43
2023/11/20 04:11:10;;;;;;;;;;;3.70;76.10;;;;;;4997583;28;81856;-43
2023/11/20 04:13:36;;;;;;;;;;;3.70;76.20;;;;;;5005302;28;81895;-44
2023/11/20 04:16:01;;;;;;;;;;;3.70;76.20;;;;;;5005292;28;82141;-43
2023/11/20 04:18:27;;;;;;;;;;;3.70;76.10;;;;;;5002013;28;82100;-44
2023/11/20 04:20:53;;;;;;;;;;;3.70;76.20;;;;;;5003578;28;82575;-43
2023/11/20 04:23:19;;;;;;;;;;;3.70;76.20;;;;;;5000684;28;82022;-43
2023/11/20 04:25:44;;;;;;;;;;;3.70;76.20;;;;;;5004238;28;81061;-43
2023/11/20 04:28:10;;;;;;;;;;;3.60;76.20;;;;;;5000827;28;82683;-44
2023/11/20 04:30:35;;;;;;;;;;;3.60;76.20;;;;;;5003513;28;82409;-43
2023/11/20 04:33:01;;;;;;;;;;;3.60;76.10;;;;;;5001773;28;82926;-44
2023/11/20 04:35:26;;;;;;;;;;;3.60;76.20;;;;;;5004725;28;82391;-44
2023/11/20 04:37:52;;;;;;;;;;;3.70;76.10;;;;;;5004490;28;81920;-44
2023/11/20 04:40:18;;;;;;;;;;;3.60;76.70;;;;;;5001206;28;82374;-42
2023/11/20 04:42:44;;;;;;;;;;;3.60;76.10;;;;;;5006547;28;81940;-43
2023/11/20 04:45:10;;;;;;;;;;;3.60;76.10;;;;;;5002117;28;83005;-43
2023/11/20 04:47:36;;;;;;;;;;;3.60;76.10;;;;;;5000200;28;81876;-43
2023/11/20 04:50:02;;;;;;;;;;;3.60;76.20;;;;;;5004431;28;81231;-43
2023/11/20 04:52:27;;;;;;;;;;;3.60;76.20;;;;;;5007367;28;82706;-44
2023/11/20 04:54:54;;;;;;;;;;;3.60;76.10;;;;;;4999882;28;82438;-42
2023/11/20 04:57:20;;;;;;;;;;;3.60;76.10;;;;;;5005353;28;82948;-43
2023/11/20 04:59:45;;;;;;;;;;;3.60;76.10;;;;;;5001153;28;82253;-43
2023/11/20 05:02:11;;;;;;;;;;;3.60;76.10;;;;;;5006296;28;82845;-43
2023/11/20 05:04:36;;;;;;;;;;;3.60;76.10;;;;;;5000593;28;82123;-44
2023/11/20 05:07:02;;;;;;;;;;;3.60;76.10;;;;;;4999760;28;82346;-43
2023/11/20 05:09:28;;;;;;;;;;;3.60;76.20;;;;;;5004104;28;82672;-42
2023/11/20 05:11:55;;;;;;;;;;;3.60;76.10;;;;;;5003184;28;82810;-44
2023/11/20 05:14:21;;;;;;;;;;;3.60;76.10;;;;;;5003063;28;82472;-42
2023/11/20 05:16:47;;;;;;;;;;;3.60;76.10;;;;;;5001688;28;82045;-43
2023/11/20 05:19:12;;;;;;;;;;;3.60;76.10;;;;;;5003282;28;81772;-43
2023/11/20 05:21:41;;;;;;;;;;;3.60;76.10;;;;;;5000826;28;83580;-42
2023/11/20 05:24:07;;;;;;;;;;;3.60;76.20;;;;;;4999145;28;83739;-43
2023/11/20 05:26:33;;;;;;;;;;;3.60;76.10;;;;;;5000066;28;82662;-44
2023/11/20 05:28:59;;;;;;;;;;;3.60;76.10;;;;;;4999623;28;81826;-44
2023/11/20 05:31:25;;;;;;;;;;;3.60;76.10;;;;;;5001485;28;82109;-42
2023/11/20 05:33:50;;;;;;;;;;;3.60;76.00;;;;;;4998634;28;82558;-43
2023/11/20 05:36:16;;;;;;;;;;;3.60;76.10;;;;;;4998537;28;82070;-43
2023/11/20 05:38:41;;;;;;;;;;;3.60;76.10;;;;;;5005382;28;81723;-43
2023/11/20 05:41:09;;;;;;;;;;;3.60;76.10;;;;;;5001803;28;81926;-42
2023/11/20 05:43:34;;;;;;;;;;;3.60;76.20;;;;;;5000725;28;83085;-44
2023/11/20 05:46:00;;;;;;;;;;;3.50;76.20;;;;;;4999146;28;83259;-43
2023/11/20 05:48:25;;;;;;;;;;;3.60;76.20;;;;;;5002596;28;81931;-43
2023/11/20 05:50:51;;;;;;;;;;;3.60;76.20;;;;;;5000997;28;82033;-44
2023/11/20 05:53:16;;;;;;;;;;;3.60;76.20;;;;;;5004882;28;82050;-43
2023/11/20 05:55:43;;;;;;;;;;;3.60;76.10;;;;;;5002482;28;81941;-43
2023/11/20 05:58:08;;;;;;;;;;;3.60;76.20;;;;;;5003159;28;82833;-42
2023/11/20 06:00:34;;;;;;;;;;;3.60;76.20;;;;;;5004666;28;83463;-44
2023/11/20 06:02:59;;;;;;;;;;;3.60;76.10;;;;;;4998286;28;81523;-44
2023/11/20 06:05:25;;;;;;;;;;;3.60;76.10;;;;;;5001017;28;82408;-44
2023/11/20 06:07:51;;;;;;;;;;;3.50;76.10;;;;;;5004885;28;82762;-43
2023/11/20 06:10:17;;;;;;;;;;;3.50;76.20;;;;;;4996339;28;83876;-43
2023/11/20 06:12:42;;;;;;;;;;;3.60;76.30;;;;;;5003721;28;85252;-44
2023/11/20 06:15:08;;;;;;;;;;;3.50;76.20;;;;;;5000465;28;82033;-43
2023/11/20 06:17:34;;;;;;;;;;;3.60;76.20;;;;;;5003957;28;81968;-44
2023/11/20 06:19:59;;;;;;;;;;;3.60;76.20;;;;;;4998999;28;82370;-42
2023/11/20 06:22:25;;;;;;;;;;;3.50;76.10;;;;;;5005560;28;82535;-43
2023/11/20 06:24:50;;;;;;;;;;;3.60;76.10;;;;;;4998427;28;82562;-43
2023/11/20 06:27:16;;;;;;;;;;;3.60;76.10;;;;;;5004127;28;81981;-43
2023/11/20 06:29:41;;;;;;;;;;;3.60;75.90;;;;;;4999582;28;81932;-43
2023/11/20 06:32:07;;;;;;;;;;;3.60;75.90;;;;;;5002175;28;81946;-44
2023/11/20 06:34:33;;;;;;;;;;;3.60;76.00;;;;;;5000567;28;82735;-45
2023/11/20 06:36:59;;;;;;;;;;;3.60;76.00;;;;;;4998933;28;83897;-43
2023/11/20 06:39:24;;;;;;;;;;;3.60;75.90;;;;;;4998905;28;83619;-42
2023/11/20 06:41:50;;;;;;;;;;;3.60;75.80;;;;;;4998311;28;81837;-43
2023/11/20 06:44:16;;;;;;;;;;;3.70;75.70;;;;;;5003871;28;82850;-42
2023/11/20 06:46:41;;;;;;;;;;;3.60;75.70;;;;;;4998238;28;82029;-44
2023/11/20 06:49:07;;;;;;;;;;;3.60;75.90;;;;;;5005784;28;82030;-43
2023/11/20 06:51:32;;;;;;;;;;;3.60;75.80;;;;;;4999979;28;81078;-42
2023/11/20 06:53:58;;;;;;;;;;;3.60;75.80;;;;;;5001659;28;83718;-43
2023/11/20 06:56:23;;;;;;;;;;;3.60;75.90;;;;;;5003474;28;81957;-43
2023/11/20 06:58:49;;;;;;;;;;;3.60;76.10;;;;;;5003563;28;83888;-44
2023/11/20 07:01:15;;;;;;;;;;;3.60;75.90;;;;;;4997042;28;81991;-43
2023/11/20 07:03:43;;;;;;;;;;;3.60;76.00;;;;;;5002446;28;81945;-44
2023/11/20 07:06:12;;;;;;;;;;;3.60;76.00;;;;;;4999932;28;82573;-42
2023/11/20 07:08:38;;;;;;;;;;;3.60;76.00;;;;;;4997910;28;83059;-43
2023/11/20 07:11:04;;;;;;;;;;;3.60;75.90;;;;;;5002057;28;82381;-42
2023/11/20 07:13:30;;;;;;;;;;;3.60;75.90;;;;;;4998844;28;82070;-43
2023/11/20 07:15:55;;;;;;;;;;;3.60;76.10;;;;;;4999488;28;81992;-42
2023/11/20 07:18:21;;;;;;;;;;;3.60;75.90;;;;;;5001357;28;82754;-43
2023/11/20 07:20:46;;;;;;;;;;;3.60;76.10;;;;;;4999960;28;81991;-44
2023/11/20 07:23:12;;;;;;;;;;;3.60;75.70;;;;;;4998181;28;82886;-44
2023/11/20 07:25:37;;;;;;;;;;;3.70;75.70;;;;;;4997159;28;81969;-44
2023/11/20 07:28:04;;;;;;;;;;;3.60;75.70;;;;;;5001769;28;82291;-42
2023/11/20 07:30:30;;;;;;;;;;;3.60;75.80;;;;;;5004510;28;83520;-43
2023/11/20 07:32:55;;;;;;;;;;;3.60;75.90;;;;;;4998955;28;82014;-44
2023/11/20 07:35:21;;;;;;;;;;;3.60;75.80;;;;;;4994830;28;84058;-42
2023/11/20 07:37:47;;;;;;;;;;;3.70;75.80;;;;;;4997746;28;82438;-43
2023/11/20 07:40:12;;;;;;;;;;;3.70;75.60;;;;;;4997376;28;81630;-44
2023/11/20 07:42:38;;;;;;;;;;;3.70;75.50;;;;;;5003275;28;81845;-44
2023/11/20 07:45:04;;;;;;;;;;;3.70;75.50;;;;;;5001663;28;81956;-44
2023/11/20 07:47:30;;;;;;;;;;;3.70;75.60;;;;;;5003841;28;83062;-44
2023/11/20 07:49:55;;;;;;;;;;;3.60;75.50;;;;;;5003944;28;82497;-44
2023/11/20 07:52:21;;;;;;;;;;;3.70;75.40;;;;;;5001927;28;83737;-43
2023/11/20 07:54:47;;;;;;;;;;;3.70;75.50;;;;;;5001809;28;82941;-44
2023/11/20 07:57:15;;;;;;;;;;;3.70;75.60;;;;;;5004222;28;82443;-44
2023/11/20 07:59:43;;;;;;;;;;;3.70;75.80;;;;;;5000055;28;82620;-42
2023/11/20 08:02:09;;;;;;;;;;;3.70;75.70;;;;;;5002250;28;82118;-43
2023/11/20 08:04:37;;;;;;;;;;;3.80;75.40;;;;;;5007696;28;81730;-44
2023/11/20 08:07:03;;;;;;;;;;;3.80;75.60;;;;;;5002909;28;82013;-44
2023/11/20 08:09:28;;;;;;;;;;;3.80;75.50;;;;;;5003721;28;82419;-44
2023/11/20 08:11:54;;;;;;;;;;;3.90;75.50;;;;;;4997312;28;83355;-42
2023/11/20 08:14:19;;;;;;;;;;;3.90;75.40;;;;;;5000288;28;82758;-43
2023/11/20 08:16:47;;;;;;;;;;;3.90;75.20;;;;;;5003644;28;82587;-43
2023/11/20 08:19:14;;;;;;;;;;;3.90;75.30;;;;;;4999952;28;82075;-43
2023/11/20 08:21:40;;;;;;;;;;;3.90;75.40;;;;;;5002081;28;82792;-43
2023/11/20 08:24:07;;;;;;;;;;;3.90;75.30;;;;;;4999671;28;82684;-42
2023/11/20 08:26:33;;;;;;;;;;;3.90;75.00;;;;;;5004747;28;82468;-43
2023/11/20 08:28:59;;;;;;;;;;;4.00;75.20;;;;;;5003315;28;83034;-43
2023/11/20 08:31:25;;;;;;;;;;;4.00;75.30;;;;;;5001616;28;83332;-44
2023/11/20 08:33:51;;;;;;;;;;;3.90;75.00;;;;;;4999866;28;81995;-43
2023/11/20 08:36:16;;;;;;;;;;;4.00;75.00;;;;;;5002782;28;84465;-45
2023/11/20 08:38:42;;;;;;;;;;;3.90;75.00;;;;;;5000592;28;82068;-43
2023/11/20 08:41:11;;;;;;;;;;;3.90;75.10;;;;;;5003953;28;82173;-42
2023/11/20 08:43:36;;;;;;;;;;;3.90;75.10;;;;;;5003922;28;83351;-44
2023/11/20 08:46:03;;;;;;;;;;;3.90;75.20;;;;;;5002174;28;82046;-45
2023/11/20 08:48:28;;;;;;;;;;;3.90;75.30;;;;;;5003523;28;81923;-44
2023/11/20 08:50:54;;;;;;;;;;;3.90;75.30;;;;;;5003000;28;81826;-43
2023/11/20 08:53:21;;;;;;;;;;;3.90;75.10;;;;;;5006285;28;81231;-44
2023/11/20 08:55:48;;;;;;;;;;;3.90;75.10;;;;;;5002046;28;82269;-43
2023/11/20 08:58:13;;;;;;;;;;;3.90;75.60;;;;;;5006765;28;82001;-43
2023/11/20 09:00:39;;;;;;;;;;;3.90;75.10;;;;;;5008488;28;84509;-43
2023/11/20 09:03:04;;;;;;;;;;;3.90;75.50;;;;;;5003747;28;83033;-44
2023/11/20 09:05:30;;;;;;;;;;;3.90;75.30;;;;;;5003267;28;82001;-46
2023/11/20 09:07:57;;;;;;;;;;;3.90;75.50;;;;;;5001158;28;82061;-44
2023/11/20 09:10:23;;;;;;;;;;;3.90;75.30;;;;;;5005103;28;83559;-43
2023/11/20 09:12:49;;;;;;;;;;;3.90;75.40;;;;;;4999211;28;81984;-44
2023/11/20 09:15:15;;;;;;;;;;;3.90;75.50;;;;;;5005099;28;82864;-45
2023/11/20 09:17:42;;;;;;;;;;;3.90;75.60;;;;;;5002520;28;82102;-43
2023/11/20 09:20:10;;;;;;;;;;;3.90;75.80;;;;;;5005369;28;82175;-43
2023/11/20 09:22:36;;;;;;;;;;;3.80;75.80;;;;;;5001793;28;83674;-44
2023/11/20 09:25:02;;;;;;;;;;;3.80;76.00;;;;;;4999140;28;82871;-45
2023/11/20 09:27:27;;;;;;;;;;;3.80;75.90;;;;;;5005322;28;84202;-44
2023/11/20 09:29:54;;;;;;;;;;;3.80;76.00;;;;;;5005422;28;84984;-44
2023/11/20 09:32:20;;;;;;;;;;;3.80;76.10;;;;;;5006594;28;81858;-44
2023/11/20 09:34:45;;;;;;;;;;;3.90;76.20;;;;;;4999944;28;82342;-44
2023/11/20 09:37:11;;;;;;;;;;;3.90;76.00;;;;;;5006946;28;83340;-44
2023/11/20 09:39:41;;;;;;;;;;;3.80;76.30;;;;;;5006381;28;83228;-44
2023/11/20 09:42:08;;;;;;;;;;;3.80;76.20;;;;;;4999949;28;82732;-44
2023/11/20 09:44:38;;;;;;;;;;;3.90;76.30;;;;;;5001856;28;82236;-45
2023/11/20 09:47:04;;;;;;;;;;;3.80;76.40;;;;;;5002331;28;82342;-44
2023/11/20 09:49:30;;;;;;;;;;;3.80;76.60;;;;;;5001928;28;84819;-45
2023/11/20 09:51:56;;;;;;;;;;;3.80;76.60;;;;;;5002222;28;81928;-44
2023/11/20 09:54:24;;;;;;;;;;;3.90;76.60;;;;;;5002504;28;81989;-45
2023/11/20 09:56:50;;;;;;;;;;;3.90;76.60;;;;;;5004255;28;83521;-44
2023/11/20 09:59:16;;;;;;;;;;;3.90;76.60;;;;;;5002050;28;82422;-45
2023/11/20 10:01:43;;;;;;;;;;;3.90;76.60;;;;;;4997486;28;82364;-46
2023/11/20 10:04:08;;;;;;;;;;;3.90;76.70;;;;;;4998348;28;81965;-45
2023/11/20 10:06:35;;;;;;;;;;;3.90;76.60;;;;;;5004866;28;81701;-45
2023/11/20 10:09:04;;;;;;;;;;;3.90;76.90;;;;;;5002102;28;82554;-45
2023/11/20 10:11:31;;;;;;;;;;;3.90;76.90;;;;;;5004686;28;81901;-46
2023/11/20 10:13:57;;;;;;;;;;;3.90;77.00;;;;;;4999988;28;83065;-48
2023/11/20 10:16:23;;;;;;;;;;;3.90;77.10;;;;;;4999377;28;82481;-48
2023/11/20 10:18:49;;;;;;;;;;;3.90;77.40;;;;;;5006079;28;81978;-48
2023/11/20 10:21:18;;;;;;;;;;;3.90;77.40;;;;;;5002564;28;82360;-44
2023/11/20 10:23:43;;;;;;;;;;;3.90;77.60;;;;;;5001350;28;82084;-43
2023/11/20 10:26:09;;;;;;;;;;;3.90;77.80;;;;;;5001886;28;81852;-44
2023/11/20 10:28:41;;;;;;;;;;;3.90;77.90;;;;;;5000280;28;82621;-44
2023/11/20 10:31:06;;;;;;;;;;;3.80;78.00;;;;;;5002654;28;81647;-44
2023/11/20 10:33:33;;;;;;;;;;;3.80;78.00;;;;;;4998551;28;82100;-43
2023/11/20 10:36:11;;;;;;;;;;;3.80;78.30;;;;;;5001696;28;83538;-43
2023/11/20 10:38:37;;;;;;;;;;;3.80;78.40;;;;;;5001592;28;82907;-44
2023/11/20 10:41:04;;;;;;;;;;;3.80;78.40;;;;;;5005460;28;83731;-44
2023/11/20 10:43:30;;;;;;;;;;;3.90;78.60;;;;;;5002191;28;81941;-43
2023/11/20 10:45:56;;;;;;;;;;;3.90;78.60;;;;;;5004537;28;81859;-43
2023/11/20 10:48:22;;;;;;;;;;;3.90;78.70;;;;;;5001480;28;81730;-43
2023/11/20 10:50:49;;;;;;;;;;;3.90;78.80;;;;;;4998423;28;81944;-44
2023/11/20 10:53:17;;;;;;;;;;;3.90;78.70;;;;;;5008043;28;82396;-42
2023/11/20 10:55:43;;;;;;;;;;;3.90;78.80;;;;;;4999527;28;81581;-43
2023/11/20 10:58:10;;;;;;;;;;;3.90;78.90;;;;;;5004625;28;82064;-44
2023/11/20 11:00:36;;;;;;;;;;;3.90;78.90;;;;;;4999664;28;81770;-44
2023/11/20 11:03:03;;;;;;;;;;;3.90;78.80;;;;;;5000121;28;83497;-44
2023/11/20 11:05:29;;;;;;;;;;;3.90;78.90;;;;;;5001739;28;82539;-44
2023/11/20 11:07:58;;;;;;;;;;;4.00;78.90;;;;;;5000363;28;82317;-43
2023/11/20 11:10:24;;;;;;;;;;;4.00;78.90;;;;;;5001227;28;81948;-44
2023/11/20 11:12:55;;;;;;;;;;;4.00;78.90;;;;;;4998710;28;82819;-44
2023/11/20 11:15:21;;;;;;;;;;;4.00;79.00;;;;;;5003278;28;83280;-43
2023/11/20 11:17:48;;;;;;;;;;;4.00;79.00;;;;;;5001839;28;81933;-44
2023/11/20 11:20:15;;;;;;;;;;;4.00;79.10;;;;;;5004309;28;82108;-44
2023/11/20 11:22:44;;;;;;;;;;;4.00;79.10;;;;;;5002088;28;82676;-43
2023/11/20 11:25:10;;;;;;;;;;;4.00;79.10;;;;;;5007227;28;82607;-44
2023/11/20 11:28:11;;;;;;;;;;;4.10;79.30;;;;;;5004242;28;83419;-45
2023/11/20 11:30:38;;;;;;;;;;;4.00;79.30;;;;;;4969538;28;82012;-44
2023/11/20 11:33:04;;;;;;;;;;;4.10;79.40;;;;;;4996288;28;82114;-44
2023/11/20 11:35:42;;;;;;;;;;;4.10;79.50;;;;;;5005248;28;82959;-43
2023/11/20 11:38:26;;;;;;;;;;;4.10;79.50;;;;;;5007576;28;82096;-45
2023/11/20 11:40:55;;;;;;;;;;;4.10;79.40;;;;;;5002074;28;81873;-44
2023/11/20 11:43:30;;;;;;;;;;;4.10;79.40;;;;;;5004547;28;83615;-43
2023/11/20 11:45:58;;;;;;;;;;;4.20;79.60;;;;;;5006112;28;81163;-43
2023/11/20 11:48:32;;;;;;;;;;;4.10;79.50;;;;;;5000955;28;82733;-45
2023/11/20 11:50:57;;;;;;;;;;;4.10;79.60;;;;;;5000723;28;81895;-43
2023/11/20 11:53:23;;;;;;;;;;;4.20;79.80;;;;;;5002541;28;82965;-43
2023/11/20 11:55:49;;;;;;;;;;;4.20;79.80;;;;;;5005043;28;83612;-43
2023/11/20 11:58:15;;;;;;;;;;;4.20;79.70;;;;;;5002843;28;82301;-43
2023/11/20 12:00:41;;;;;;;;;;;4.20;80.30;;;;;;5001069;28;81857;-44
2023/11/20 12:03:11;;;;;;;;;;;4.20;79.80;;;;;;5016152;28;82688;-44
2023/11/20 12:05:57;;;;;;;;;;;4.20;79.90;;;;;;5001048;28;82033;-43
2023/11/20 12:08:24;;;;;;;;;;;4.20;80.00;;;;;;4998715;28;82032;-43
2023/11/20 12:10:50;;;;;;;;;;;4.20;80.20;;;;;;5000824;28;81233;-43
2023/11/20 12:13:16;;;;;;;;;;;4.30;79.90;;;;;;5005482;28;82992;-44
2023/11/20 12:15:45;;;;;;;;;;;4.30;80.00;;;;;;5001554;28;83489;-44
2023/11/20 12:18:10;;;;;;;;;;;4.30;80.00;;;;;;5003313;28;82915;-44
2023/11/20 12:20:57;;;;;;;;;;;4.30;80.00;;;;;;5001364;28;82751;-43
2023/11/20 12:23:24;;;;;;;;;;;4.30;80.00;;;;;;4999148;28;82417;-44
2023/11/20 12:25:53;;;;;;;;;;;4.30;79.90;;;;;;5003470;28;82517;-43
2023/11/20 12:28:20;;;;;;;;;;;4.30;80.00;;;;;;5005607;28;82929;-43
2023/11/20 12:30:45;;;;;;;;;;;4.40;80.00;;;;;;5008945;28;83569;-44
2023/11/20 12:33:11;;;;;;;;;;;4.30;80.00;;;;;;4999021;28;83012;-43
2023/11/20 12:35:37;;;;;;;;;;;4.40;80.00;;;;;;4999914;28;82721;-45
2023/11/20 12:38:04;;;;;;;;;;;4.40;80.10;;;;;;4999788;28;82683;-44
2023/11/20 12:40:29;;;;;;;;;;;4.40;80.10;;;;;;5004402;28;82028;-44
2023/11/20 12:42:55;;;;;;;;;;;4.40;80.20;;;;;;5000625;28;83276;-44
2023/11/20 12:45:21;;;;;;;;;;;4.40;80.00;;;;;;5000482;28;82569;-43
2023/11/20 12:47:46;;;;;;;;;;;4.40;80.00;;;;;;4999945;28;82813;-44
2023/11/20 12:50:15;;;;;;;;;;;4.50;80.00;;;;;;5003960;28;82456;-43
2023/11/20 12:52:41;;;;;;;;;;;4.50;80.10;;;;;;5002548;28;83753;-44
2023/11/20 12:55:10;;;;;;;;;;;4.50;80.00;;;;;;5002632;28;82402;-44
2023/11/20 12:57:36;;;;;;;;;;;4.50;80.00;;;;;;5004972;28;81957;-44
2023/11/20 13:00:09;;;;;;;;;;;4.50;80.60;;;;;;5004547;28;84526;-44
2023/11/20 13:02:39;;;;;;;;;;;4.50;80.10;;;;;;4999345;28;83347;-43
2023/11/20 13:05:07;;;;;;;;;;;4.60;80.10;;;;;;5006623;28;81890;-45
2023/11/20 13:07:34;;;;;;;;;;;4.60;80.10;;;;;;5006220;28;82811;-43
2023/11/20 13:10:00;;;;;;;;;;;4.70;80.00;;;;;;4999034;28;83801;-44
2023/11/20 13:12:28;;;;;;;;;;;4.60;79.80;;;;;;4999967;28;82881;-44
2023/11/20 13:15:00;;;;;;;;;;;4.70;80.60;;;;;;5004275;28;81990;-43
2023/11/20 13:17:27;;;;;;;;;;;4.70;79.90;;;;;;5002582;28;81951;-43
2023/11/20 13:19:52;;;;;;;;;;;4.70;79.90;;;;;;4997405;28;81965;-43
2023/11/20 13:22:18;;;;;;;;;;;4.80;79.90;;;;;;5001189;28;82559;-44
2023/11/20 13:24:49;;;;;;;;;;;4.80;79.60;;;;;;4999422;28;81065;-44
2023/11/20 13:27:15;;;;;;;;;;;4.80;79.60;;;;;;5004733;28;82458;-45
2023/11/20 13:29:40;;;;;;;;;;;4.90;79.50;;;;;;4996986;28;82471;-44
2023/11/20 13:32:16;;;;;;;;;;;4.90;79.50;;;;;;4997380;28;83084;-43
2023/11/20 13:34:41;;;;;;;;;;;4.90;79.70;;;;;;4999526;28;82552;-44
2023/11/20 13:37:08;;;;;;;;;;;4.80;79.80;;;;;;5008381;28;83521;-44
2023/11/20 13:39:35;;;;;;;;;;;4.90;79.70;;;;;;4998846;28;84897;-44
2023/11/20 13:42:01;;;;;;;;;;;4.90;79.80;;;;;;4998951;28;83428;-44
2023/11/20 13:44:26;;;;;;;;;;;5.00;79.50;;;;;;5002930;28;81749;-43
2023/11/20 13:46:52;;;;;;;;;;;5.00;79.40;;;;;;5001188;28;81937;-43
2023/11/20 13:49:17;;;;;;;;;;;5.00;79.40;;;;;;4999700;28;81747;-44
2023/11/20 13:51:43;;;;;;;;;;;5.00;79.20;;;;;;4995644;28;82057;-44
2023/11/20 13:54:11;;;;;;;;;;;5.00;79.10;;;;;;5000830;28;81862;-44
2023/11/20 13:56:38;;;;;;;;;;;5.10;79.30;;;;;;5003418;28;84398;-43
2023/11/20 13:59:04;;;;;;;;;;;5.10;79.10;;;;;;5001540;28;82598;-44
2023/11/20 14:01:30;;;;;;;;;;;5.10;79.20;;;;;;5001815;28;85034;-45
2023/11/20 14:03:57;;;;;;;;;;;5.10;78.90;;;;;;5004540;28;81952;-42
2023/11/20 14:06:23;;;;;;;;;;;5.10;79.20;;;;;;4999521;28;83046;-44
2023/11/20 14:08:48;;;;;;;;;;;5.10;79.00;;;;;;4995117;28;82597;-43
2023/11/20 14:11:14;;;;;;;;;;;5.20;79.10;;;;;;5001736;28;81943;-45
2023/11/20 14:13:39;;;;;;;;;;;5.20;79.00;;;;;;4998795;28;81781;-45
2023/11/20 14:16:11;;;;;;;;;;;5.20;79.10;;;;;;5001149;28;82446;-44
2023/11/20 14:18:37;;;;;;;;;;;5.20;78.80;;;;;;5007476;28;82618;-44
2023/11/20 14:21:05;;;;;;;;;;;5.20;78.80;;;;;;4998491;28;84395;-44
2023/11/20 14:23:31;;;;;;;;;;;5.30;78.80;;;;;;4998598;28;81989;-43
2023/11/20 14:25:57;;;;;;;;;;;5.30;78.80;;;;;;5000163;28;81967;-45